Time;durP1;ratioP1;P1;durP2;ratioP2;P2;SDS_P1;SDS_P2;PMS_P1;PMS_P2;Temp;Humidity;BMP_temperature;BMP_pressure;BME280_temperature;BME280_humidity;BME280_pressure;Samples;Min_cycle;Max_cycle;Signal;HPM_P1;HPM_P2
2022/11/08 00:02:19;;;;;;;8.15;2.83;;;;;;;;;;5007557;28;20087;-73
2022/11/08 00:04:45;;;;;;;16.33;3.30;;;;;;;;;;4985994;28;20519;-74
2022/11/08 00:15:26;;;;;;;25.90;4.85;;;;;;;;;;5022514;28;20051;-74
2022/11/08 00:17:52;;;;;;;15.35;3.40;;;;;;;;;;5005572;28;20095;-74
2022/11/08 00:20:18;;;;;;;12.55;4.00;;;;;;;;;;5017967;28;20043;-73
2022/11/08 00:22:44;;;;;;;16.80;3.72;;;;;;;;;;5003728;28;20068;-74
2022/11/08 00:25:10;;;;;;;17.17;3.80;;;;;;;;;;5002341;28;20056;-73
2022/11/08 00:27:36;;;;;;;15.93;3.65;;;;;;;;;;5022427;28;20033;-73
2022/11/08 00:30:02;;;;;;;16.02;3.70;;;;;;;;;;5021054;28;20041;-73
2022/11/08 00:32:29;;;;;;;12.82;3.35;;;;;;;;;;5034319;28;20144;-74
2022/11/08 00:34:55;;;;;;;13.10;3.33;;;;;;;;;;5020490;28;20045;-74
2022/11/08 00:37:21;;;;;;;15.88;4.13;;;;;;;;;;5013276;28;20049;-74
2022/11/08 00:39:47;;;;;;;18.55;4.03;;;;;;;;;;5012180;28;20037;-74
2022/11/08 00:42:13;;;;;;;14.38;4.03;;;;;;;;;;5009861;28;20046;-74
2022/11/08 00:44:40;;;;;;;11.65;2.97;;;;;;;;;;5006956;28;20045;-74
2022/11/08 00:47:06;;;;;;;16.50;3.70;;;;;;;;;;5010987;28;20128;-74
2022/11/08 00:49:32;;;;;;;10.15;2.58;;;;;;;;;;4994236;28;20045;-74
2022/11/08 00:51:59;;;;;;;12.77;3.30;;;;;;;;;;5008243;28;20144;-74
2022/11/08 00:54:25;;;;;;;17.23;3.53;;;;;;;;;;5011465;28;20049;-74
2022/11/08 00:56:51;;;;;;;13.27;3.42;;;;;;;;;;5009116;28;20049;-73
2022/11/08 00:59:18;;;;;;;13.13;3.45;;;;;;;;;;5009317;28;20753;-74
2022/11/08 01:01:44;;;;;;;12.98;2.60;;;;;;;;;;5007486;28;20037;-74
2022/11/08 01:04:11;;;;;;;13.55;3.08;;;;;;;;;;4990272;28;20049;-74
2022/11/08 01:06:38;;;;;;;11.70;3.78;;;;;;;;;;4985931;28;20163;-74
2022/11/08 01:09:04;;;;;;;13.45;3.35;;;;;;;;;;4999477;28;21342;-74
2022/11/08 01:11:30;;;;;;;14.55;3.08;;;;;;;;;;5021615;28;20041;-74
2022/11/08 01:13:57;;;;;;;15.65;3.83;;;;;;;;;;5005634;28;20038;-74
2022/11/08 01:16:25;;;;;;;18.77;3.30;;;;;;;;;;4987061;28;20038;-72
2022/11/08 01:18:52;;;;;;;15.32;4.03;;;;;;;;;;5001082;28;20053;-73
2022/11/08 01:21:18;;;;;;;12.40;3.42;;;;;;;;;;5006686;28;20040;-74
2022/11/08 01:23:44;;;;;;;16.30;3.00;;;;;;;;;;5005656;28;20056;-73
2022/11/08 01:26:12;;;;;;;16.45;3.70;;;;;;;;;;5007334;28;20059;-73
2022/11/08 01:28:38;;;;;;;18.02;3.88;;;;;;;;;;4989443;28;20049;-73
2022/11/08 01:31:05;;;;;;;9.00;2.90;;;;;;;;;;5006024;28;21372;-74
2022/11/08 01:33:32;;;;;;;11.77;3.28;;;;;;;;;;5005521;28;20037;-74
2022/11/08 01:35:58;;;;;;;15.93;4.15;;;;;;;;;;5008019;28;20072;-73
2022/11/08 01:38:24;;;;;;;13.65;3.50;;;;;;;;;;4994094;28;20044;-74
2022/11/08 01:40:50;;;;;;;20.13;3.47;;;;;;;;;;5007483;28;20041;-73
2022/11/08 01:43:26;;;;;;;12.15;3.17;;;;;;;;;;5007262;28;20037;-74
2022/11/08 01:46:04;;;;;;;13.35;3.38;;;;;;;;;;5004350;28;20069;-74
2022/11/08 01:48:31;;;;;;;13.38;3.50;;;;;;;;;;4985493;28;20110;-74
2022/11/08 01:50:58;;;;;;;12.38;3.67;;;;;;;;;;4999741;28;20049;-73
2022/11/08 01:53:24;;;;;;;17.58;3.47;;;;;;;;;;5009966;28;20049;-73
2022/11/08 01:55:50;;;;;;;11.23;2.88;;;;;;;;;;4985393;28;20083;-74
2022/11/08 01:58:18;;;;;;;13.15;3.55;;;;;;;;;;5021331;28;20588;-73
2022/11/08 02:00:44;;;;;;;15.18;3.30;;;;;;;;;;5003709;28;20492;-73
2022/11/08 02:03:13;;;;;;;11.65;3.42;;;;;;;;;;4995215;28;20041;-73
2022/11/08 02:05:40;;;;;;;14.88;4.10;;;;;;;;;;5006224;28;20040;-73
2022/11/08 02:08:09;;;;;;;16.58;4.10;;;;;;;;;;5011853;28;20081;-74
2022/11/08 02:10:36;;;;;;;9.40;2.53;;;;;;;;;;5021156;28;20073;-73
2022/11/08 02:13:03;;;;;;;10.43;3.10;;;;;;;;;;5023390;28;20444;-73
2022/11/08 02:15:29;;;;;;;13.10;4.20;;;;;;;;;;5023960;28;20042;-73
2022/11/08 02:17:55;;;;;;;11.63;3.35;;;;;;;;;;5031495;28;20056;-73
2022/11/08 02:20:21;;;;;;;13.57;2.88;;;;;;;;;;5029557;28;20053;-73
2022/11/08 02:23:00;;;;;;;16.17;3.35;;;;;;;;;;5033860;28;21756;-73
2022/11/08 02:25:27;;;;;;;11.50;3.00;;;;;;;;;;5013145;28;20050;-74
2022/11/08 02:27:53;;;;;;;14.30;2.97;;;;;;;;;;5023323;28;20114;-73
2022/11/08 02:30:19;;;;;;;13.82;3.10;;;;;;;;;;5009937;28;21632;-73
2022/11/08 02:32:46;;;;;;;8.13;2.80;;;;;;;;;;5001902;28;20045;-73
2022/11/08 02:35:15;;;;;;;8.75;3.13;;;;;;;;;;5002387;28;20418;-73
2022/11/08 02:37:41;;;;;;;16.73;3.70;;;;;;;;;;4999653;28;22080;-74
2022/11/08 02:40:07;;;;;;;11.73;3.03;;;;;;;;;;4980599;28;20073;-73
2022/11/08 02:42:33;;;;;;;9.65;2.67;;;;;;;;;;5006997;28;20045;-73
2022/11/08 02:44:59;;;;;;;15.52;4.60;;;;;;;;;;5007493;28;20037;-73
2022/11/08 02:47:25;;;;;;;8.35;2.65;;;;;;;;;;5008081;28;20770;-73
2022/11/08 02:49:51;;;;;;;14.02;3.40;;;;;;;;;;5001447;28;20041;-73
2022/11/08 02:52:18;;;;;;;13.93;3.75;;;;;;;;;;5004703;28;20103;-73
2022/11/08 02:54:44;;;;;;;12.13;3.08;;;;;;;;;;5002779;28;20040;-73
2022/11/08 02:57:10;;;;;;;9.00;3.03;;;;;;;;;;5000178;28;20076;-73
2022/11/08 02:59:36;;;;;;;15.68;3.13;;;;;;;;;;5002753;28;20129;-73
2022/11/08 03:02:02;;;;;;;10.93;3.10;;;;;;;;;;5008630;28;20408;-73
2022/11/08 03:04:28;;;;;;;9.48;2.63;;;;;;;;;;5005768;28;20045;-73
2022/11/08 03:06:54;;;;;;;11.82;2.92;;;;;;;;;;5009894;28;20083;-73
2022/11/08 03:09:20;;;;;;;18.60;3.47;;;;;;;;;;5002337;28;20041;-73
2022/11/08 03:11:46;;;;;;;16.38;4.97;;;;;;;;;;4990670;28;20091;-73
2022/11/08 03:14:12;;;;;;;9.10;2.88;;;;;;;;;;5005516;28;20106;-73
2022/11/08 03:16:38;;;;;;;13.80;3.65;;;;;;;;;;5001963;28;20436;-72
2022/11/08 03:19:04;;;;;;;14.55;2.90;;;;;;;;;;4987503;28;20548;-72
2022/11/08 03:21:31;;;;;;;11.90;3.20;;;;;;;;;;4985539;28;20045;-72
2022/11/08 03:23:57;;;;;;;18.92;4.32;;;;;;;;;;5017672;28;20080;-72
2022/11/08 03:26:23;;;;;;;12.27;3.00;;;;;;;;;;4993057;28;20045;-72
2022/11/08 03:28:49;;;;;;;19.30;4.53;;;;;;;;;;4998189;28;20049;-72
2022/11/08 03:31:15;;;;;;;19.83;4.05;;;;;;;;;;4998684;28;20672;-73
2022/11/08 03:33:41;;;;;;;11.38;3.10;;;;;;;;;;5002174;28;20565;-72
2022/11/08 03:36:07;;;;;;;17.45;4.45;;;;;;;;;;4990440;28;20049;-71
2022/11/08 03:38:33;;;;;;;11.30;3.45;;;;;;;;;;4998618;28;20044;-72
2022/11/08 03:40:59;;;;;;;15.13;3.25;;;;;;;;;;5018657;28;20040;-71
2022/11/08 03:43:26;;;;;;;14.23;3.65;;;;;;;;;;4996317;28;20041;-71
2022/11/08 03:45:52;;;;;;;13.77;3.15;;;;;;;;;;5003189;28;20074;-72
2022/11/08 03:48:18;;;;;;;13.30;3.63;;;;;;;;;;5006380;28;20049;-72
2022/11/08 03:50:45;;;;;;;12.00;3.15;;;;;;;;;;5005928;28;20045;-72
2022/11/08 03:53:11;;;;;;;10.73;3.13;;;;;;;;;;5022331;28;20410;-72
2022/11/08 03:55:37;;;;;;;14.20;2.97;;;;;;;;;;5044285;28;20436;-71
2022/11/08 03:58:03;;;;;;;12.35;2.83;;;;;;;;;;5024603;28;20045;-72
2022/11/08 04:00:29;;;;;;;19.23;3.97;;;;;;;;;;5029637;28;20152;-72
2022/11/08 04:03:00;;;;;;;13.13;3.30;;;;;;;;;;5023445;28;20045;-73
2022/11/08 04:05:26;;;;;;;15.23;3.28;;;;;;;;;;5025892;28;20158;-73
2022/11/08 04:07:52;;;;;;;17.27;3.92;;;;;;;;;;5026787;28;20064;-73
2022/11/08 04:10:18;;;;;;;12.18;3.30;;;;;;;;;;4996104;28;20052;-73
2022/11/08 04:15:30;;;;;;;9.00;3.30;;;;;;;;;;5005320;28;20124;-73
2022/11/08 04:23:27;;;;;;;10.77;2.92;;;;;;;;;;5024193;28;20696;-73
2022/11/08 04:26:04;;;;;;;11.93;3.20;;;;;;;;;;5009300;28;20057;-73
2022/11/08 04:28:31;;;;;;;15.32;3.33;;;;;;;;;;5023557;28;20049;-73
2022/11/08 04:30:58;;;;;;;9.55;3.35;;;;;;;;;;5009480;28;20507;-73
2022/11/08 04:33:24;;;;;;;14.02;3.45;;;;;;;;;;5000002;28;20131;-73
2022/11/08 04:35:51;;;;;;;13.35;3.30;;;;;;;;;;5010682;28;20037;-73
2022/11/08 04:38:17;;;;;;;13.30;3.30;;;;;;;;;;4993657;28;20096;-73
2022/11/08 04:40:44;;;;;;;12.70;3.53;;;;;;;;;;5029380;28;20123;-73
2022/11/08 04:43:10;;;;;;;12.55;3.35;;;;;;;;;;5013952;28;20044;-72
2022/11/08 04:45:36;;;;;;;14.65;3.30;;;;;;;;;;5029619;28;20070;-73
2022/11/08 04:48:02;;;;;;;9.00;2.92;;;;;;;;;;4988672;28;20037;-73
2022/11/08 04:50:28;;;;;;;15.63;3.58;;;;;;;;;;5005968;28;20106;-73
2022/11/08 04:52:55;;;;;;;11.75;3.05;;;;;;;;;;5031667;28;20041;-73
2022/11/08 04:55:22;;;;;;;11.82;3.20;;;;;;;;;;5026530;28;20049;-72
2022/11/08 04:57:49;;;;;;;9.50;3.35;;;;;;;;;;5026118;28;20559;-72
2022/11/08 05:00:15;;;;;;;11.18;3.33;;;;;;;;;;5003680;28;20452;-73
2022/11/08 05:02:42;;;;;;;12.45;3.45;;;;;;;;;;5007153;28;20044;-73
2022/11/08 05:05:08;;;;;;;16.30;3.60;;;;;;;;;;5027446;28;21283;-73
2022/11/08 05:07:34;;;;;;;10.50;2.88;;;;;;;;;;4999210;28;22010;-73
2022/11/08 05:10:01;;;;;;;11.63;3.03;;;;;;;;;;5029602;28;20183;-73
2022/11/08 05:12:27;;;;;;;10.30;3.20;;;;;;;;;;5032194;28;20567;-73
2022/11/08 05:14:53;;;;;;;9.18;2.80;;;;;;;;;;5011305;28;20448;-73
2022/11/08 05:17:19;;;;;;;11.13;3.10;;;;;;;;;;5028371;28;20068;-73
2022/11/08 05:25:14;;;;;;;10.02;3.30;;;;;;;;;;5028159;28;20045;-73
2022/11/08 05:27:40;;;;;;;11.20;3.33;;;;;;;;;;5011162;28;20134;-72
2022/11/08 05:30:07;;;;;;;8.30;2.60;;;;;;;;;;5011493;28;20125;-73
2022/11/08 05:32:33;;;;;;;16.10;3.53;;;;;;;;;;5014098;28;20059;-73
2022/11/08 05:34:59;;;;;;;14.00;4.00;;;;;;;;;;5032250;28;20047;-73
2022/11/08 05:37:25;;;;;;;10.60;3.50;;;;;;;;;;4998098;28;20090;-73
2022/11/08 05:39:51;;;;;;;10.00;3.40;;;;;;;;;;5022532;28;20570;-72
2022/11/08 05:42:17;;;;;;;14.85;4.70;;;;;;;;;;5007271;28;21343;-72
2022/11/08 05:44:43;;;;;;;10.35;3.30;;;;;;;;;;5041638;28;20126;-72
2022/11/08 05:47:09;;;;;;;12.30;3.22;;;;;;;;;;5011586;28;20745;-72
2022/11/08 05:49:35;;;;;;;21.15;3.65;;;;;;;;;;5009641;28;20592;-72
2022/11/08 05:52:01;;;;;;;12.35;3.15;;;;;;;;;;4995423;28;20044;-72
2022/11/08 05:54:27;;;;;;;13.27;3.65;;;;;;;;;;5027951;28;20056;-73
2022/11/08 05:56:53;;;;;;;11.00;3.45;;;;;;;;;;5025635;28;20199;-73
2022/11/08 05:59:19;;;;;;;12.27;4.07;;;;;;;;;;5029899;28;20052;-73
2022/11/08 06:01:45;;;;;;;13.57;3.83;;;;;;;;;;5009457;28;20127;-73
2022/11/08 06:04:12;;;;;;;12.95;4.35;;;;;;;;;;5013017;28;20060;-72
2022/11/08 06:06:38;;;;;;;17.05;4.95;;;;;;;;;;5012837;28;20504;-72
2022/11/08 06:09:04;;;;;;;15.75;4.75;;;;;;;;;;5036032;28;20157;-73
2022/11/08 06:11:30;;;;;;;13.57;4.68;;;;;;;;;;5016700;28;20060;-74
2022/11/08 06:13:56;;;;;;;10.75;4.18;;;;;;;;;;5017103;28;20051;-73
2022/11/08 06:16:23;;;;;;;16.23;4.30;;;;;;;;;;5017501;28;20395;-73
2022/11/08 06:18:49;;;;;;;13.60;3.90;;;;;;;;;;5036293;28;20048;-74
2022/11/08 06:21:17;;;;;;;14.52;3.85;;;;;;;;;;5014693;28;20036;-72
2022/11/08 06:23:43;;;;;;;11.00;4.22;;;;;;;;;;5018658;28;20136;-72
2022/11/08 06:26:10;;;;;;;13.43;4.45;;;;;;;;;;4997116;28;20134;-73
2022/11/08 06:28:36;;;;;;;13.35;4.55;;;;;;;;;;5033325;28;20063;-72
2022/11/08 06:31:03;;;;;;;14.98;4.78;;;;;;;;;;5004603;28;20045;-72
2022/11/08 06:33:29;;;;;;;13.13;4.30;;;;;;;;;;5032413;28;20749;-72
2022/11/08 06:35:55;;;;;;;10.85;4.00;;;;;;;;;;5016944;28;20051;-73
2022/11/08 06:38:21;;;;;;;15.68;4.53;;;;;;;;;;5014818;28;20755;-72
2022/11/08 06:40:47;;;;;;;12.65;4.68;;;;;;;;;;5013619;28;20114;-73
2022/11/08 06:43:14;;;;;;;12.23;3.95;;;;;;;;;;5010038;28;20392;-72
2022/11/08 06:45:40;;;;;;;13.40;4.55;;;;;;;;;;5034817;28;20123;-72
2022/11/08 06:48:07;;;;;;;11.85;4.43;;;;;;;;;;5032909;28;20048;-72
2022/11/08 06:50:34;;;;;;;11.63;4.38;;;;;;;;;;5013062;28;20046;-73
2022/11/08 06:53:01;;;;;;;12.50;4.40;;;;;;;;;;5011781;28;20409;-72
2022/11/08 06:55:28;;;;;;;10.27;5.03;;;;;;;;;;5028217;28;20460;-73
2022/11/08 06:57:54;;;;;;;12.90;4.60;;;;;;;;;;4997637;28;20045;-73
2022/11/08 07:00:21;;;;;;;11.48;4.28;;;;;;;;;;5011710;28;20040;-73
2022/11/08 07:02:58;;;;;;;13.23;4.32;;;;;;;;;;5029249;28;20049;-72
2022/11/08 07:05:25;;;;;;;15.73;4.30;;;;;;;;;;5030729;28;20041;-73
2022/11/08 07:07:51;;;;;;;14.60;4.70;;;;;;;;;;5032354;28;20052;-73
2022/11/08 07:10:21;;;;;;;21.30;4.80;;;;;;;;;;5013195;28;20118;-73
2022/11/08 07:12:49;;;;;;;16.58;5.07;;;;;;;;;;4992661;28;20088;-73
2022/11/08 07:15:16;;;;;;;13.70;4.90;;;;;;;;;;5014794;28;20056;-73
2022/11/08 07:17:42;;;;;;;12.23;4.68;;;;;;;;;;5046853;28;20568;-73
2022/11/08 07:20:08;;;;;;;12.30;4.63;;;;;;;;;;5056081;28;20104;-73
2022/11/08 07:22:34;;;;;;;13.00;4.60;;;;;;;;;;5025054;28;20051;-72
2022/11/08 07:25:00;;;;;;;9.45;3.85;;;;;;;;;;5013374;28;20638;-73
2022/11/08 07:27:27;;;;;;;9.20;4.07;;;;;;;;;;5012900;28;20044;-73
2022/11/08 07:29:53;;;;;;;9.88;4.00;;;;;;;;;;5013820;28;20039;-72
2022/11/08 07:32:19;;;;;;;9.98;3.92;;;;;;;;;;5029687;28;20148;-74
2022/11/08 07:34:45;;;;;;;12.73;3.83;;;;;;;;;;4994003;28;20146;-72
2022/11/08 07:37:11;;;;;;;13.05;3.58;;;;;;;;;;5031872;28;20076;-73
2022/11/08 07:39:37;;;;;;;11.55;4.18;;;;;;;;;;5015359;28;20099;-74
2022/11/08 07:42:04;;;;;;;12.52;4.45;;;;;;;;;;5003867;28;20044;-71
2022/11/08 07:44:30;;;;;;;9.35;3.20;;;;;;;;;;5022506;28;20531;-71
2022/11/08 07:46:56;;;;;;;7.20;3.35;;;;;;;;;;5004226;28;20508;-71
2022/11/08 07:49:22;;;;;;;10.18;3.55;;;;;;;;;;5008083;28;20052;-71
2022/11/08 07:51:48;;;;;;;8.50;3.03;;;;;;;;;;5022462;28;20076;-71
2022/11/08 07:54:14;;;;;;;6.05;2.97;;;;;;;;;;5001010;28;20049;-71
2022/11/08 07:56:40;;;;;;;9.57;3.22;;;;;;;;;;4999471;28;20366;-71
2022/11/08 07:59:06;;;;;;;9.00;3.40;;;;;;;;;;5018729;28;20056;-70
2022/11/08 08:01:32;;;;;;;9.77;3.13;;;;;;;;;;5020072;28;20151;-71
2022/11/08 08:03:58;;;;;;;11.23;3.10;;;;;;;;;;5037076;28;20041;-70
2022/11/08 08:06:25;;;;;;;9.77;2.47;;;;;;;;;;5039815;28;20036;-70
2022/11/08 08:08:51;;;;;;;6.15;2.90;;;;;;;;;;5034445;28;21721;-71
2022/11/08 08:11:18;;;;;;;5.18;2.58;;;;;;;;;;5032606;28;20045;-71
2022/11/08 08:13:44;;;;;;;8.05;3.30;;;;;;;;;;5020933;28;20093;-71
2022/11/08 08:16:10;;;;;;;10.65;3.25;;;;;;;;;;5017209;28;20045;-70
2022/11/08 08:18:36;;;;;;;5.97;2.72;;;;;;;;;;4996746;28;20060;-71
2022/11/08 08:21:02;;;;;;;6.97;2.60;;;;;;;;;;5018452;28;20152;-71
2022/11/08 08:23:28;;;;;;;8.82;2.40;;;;;;;;;;5018910;28;20594;-71
2022/11/08 08:25:55;;;;;;;9.65;2.80;;;;;;;;;;5033891;28;20048;-71
2022/11/08 08:28:21;;;;;;;9.02;2.72;;;;;;;;;;5036564;28;20508;-71
2022/11/08 08:30:47;;;;;;;11.20;2.40;;;;;;;;;;5001832;28;20041;-71
2022/11/08 08:33:14;;;;;;;6.45;2.92;;;;;;;;;;5018824;28;20049;-71
2022/11/08 08:35:44;;;;;;;7.93;3.00;;;;;;;;;;5033708;28;20158;-72
2022/11/08 08:38:11;;;;;;;6.18;2.10;;;;;;;;;;5033318;28;20139;-71
2022/11/08 08:40:37;;;;;;;5.38;2.10;;;;;;;;;;5018270;28;20045;-72
2022/11/08 08:43:04;;;;;;;8.13;2.50;;;;;;;;;;5013154;28;20079;-72
2022/11/08 08:45:30;;;;;;;6.82;2.50;;;;;;;;;;5032445;28;20036;-72
2022/11/08 08:47:57;;;;;;;6.15;2.75;;;;;;;;;;5018236;28;20051;-72
2022/11/08 08:50:24;;;;;;;8.02;2.38;;;;;;;;;;5019070;28;20053;-72
2022/11/08 08:52:50;;;;;;;5.53;2.20;;;;;;;;;;5037946;28;20059;-71
2022/11/08 08:55:17;;;;;;;9.70;3.03;;;;;;;;;;5011866;28;20123;-71
2022/11/08 08:57:44;;;;;;;3.65;2.10;;;;;;;;;;5047683;28;20047;-72
2022/11/08 09:00:10;;;;;;;4.80;2.30;;;;;;;;;;5062664;28;20036;-67
2022/11/08 09:02:36;;;;;;;6.32;1.95;;;;;;;;;;5042203;28;20412;-68
2022/11/08 09:05:02;;;;;;;7.97;2.28;;;;;;;;;;5037975;28;20381;-68
2022/11/08 09:07:28;;;;;;;7.90;2.45;;;;;;;;;;5019871;28;20044;-68
2022/11/08 09:09:54;;;;;;;5.50;2.28;;;;;;;;;;5032360;28;20257;-68
2022/11/08 09:12:21;;;;;;;5.68;2.50;;;;;;;;;;5032852;28;20052;-68
2022/11/08 09:14:47;;;;;;;4.90;1.92;;;;;;;;;;5018423;28;20473;-67
2022/11/08 09:17:14;;;;;;;6.18;2.17;;;;;;;;;;5020952;28;20048;-68
2022/11/08 09:19:40;;;;;;;3.92;1.77;;;;;;;;;;5017885;28;20467;-68
2022/11/08 09:22:06;;;;;;;7.97;2.95;;;;;;;;;;5039301;28;20048;-69
2022/11/08 09:24:33;;;;;;;5.70;2.40;;;;;;;;;;5017370;28;20049;-69
2022/11/08 09:27:02;;;;;;;7.85;2.67;;;;;;;;;;5037068;28;20080;-69
2022/11/08 09:29:29;;;;;;;6.35;2.25;;;;;;;;;;5035469;28;20032;-69
2022/11/08 09:31:56;;;;;;;10.30;2.75;;;;;;;;;;5036490;28;20048;-69
2022/11/08 09:34:22;;;;;;;9.88;3.15;;;;;;;;;;5019208;28;20473;-75
2022/11/08 09:36:48;;;;;;;3.67;2.05;;;;;;;;;;5030266;28;20045;-74
2022/11/08 09:39:14;;;;;;;3.38;2.30;;;;;;;;;;5028868;28;20049;-74
2022/11/08 09:41:43;;;;;;;6.00;2.40;;;;;;;;;;5018816;28;21050;-75
2022/11/08 09:44:09;;;;;;;6.20;2.47;;;;;;;;;;5020057;28;20917;-74
2022/11/08 09:46:43;;;;;;;4.22;2.05;;;;;;;;;;5019835;28;20055;-75
2022/11/08 09:49:13;;;;;;;8.18;2.25;;;;;;;;;;5012227;28;20175;-74
2022/11/08 09:51:40;;;;;;;3.60;1.75;;;;;;;;;;5023035;28;20320;-75
2022/11/08 09:54:12;;;;;;;5.93;2.13;;;;;;;;;;5020675;28;20198;-75
2022/11/08 09:56:39;;;;;;;3.88;2.00;;;;;;;;;;5023176;28;20052;-74
2022/11/08 09:59:24;;;;;;;5.03;2.08;;;;;;;;;;5017262;28;20052;-75
2022/11/08 10:01:50;;;;;;;4.18;2.15;;;;;;;;;;5005083;28;20053;-75
2022/11/08 10:04:23;;;;;;;3.15;1.98;;;;;;;;;;5020617;28;20384;-75
2022/11/08 10:07:04;;;;;;;5.70;2.30;;;;;;;;;;5020516;28;20060;-75
2022/11/08 10:09:47;;;;;;;5.07;1.90;;;;;;;;;;5009293;28;20048;-75
2022/11/08 10:12:20;;;;;;;5.18;2.08;;;;;;;;;;5016519;28;20036;-75
2022/11/08 10:14:55;;;;;;;8.82;2.15;;;;;;;;;;5037937;28;20059;-75
2022/11/08 10:17:31;;;;;;;5.40;1.95;;;;;;;;;;5018755;28;20068;-75
2022/11/08 10:20:12;;;;;;;3.47;2.05;;;;;;;;;;5038716;28;20151;-75
2022/11/08 10:22:57;;;;;;;3.55;1.65;;;;;;;;;;4999760;28;20126;-75
2022/11/08 10:25:23;;;;;;;5.55;2.28;;;;;;;;;;5034676;28;20052;-75
2022/11/08 10:27:50;;;;;;;5.22;2.40;;;;;;;;;;5018120;28;20049;-75
2022/11/08 10:30:21;;;;;;;4.90;2.15;;;;;;;;;;5018082;28;20045;-74
2022/11/08 10:32:53;;;;;;;6.53;2.47;;;;;;;;;;5017428;28;20083;-74
2022/11/08 10:35:29;;;;;;;4.93;1.75;;;;;;;;;;5030331;28;20051;-74
2022/11/08 10:37:57;;;;;;;4.47;1.90;;;;;;;;;;5041744;28;20504;-75
2022/11/08 10:40:23;;;;;;;5.90;2.10;;;;;;;;;;5035079;28;20048;-75
2022/11/08 10:42:56;;;;;;;3.05;1.52;;;;;;;;;;5017720;28;20049;-74
2022/11/08 10:45:23;;;;;;;5.75;2.53;;;;;;;;;;5011371;28;20051;-75
2022/11/08 10:47:49;;;;;;;5.28;1.98;;;;;;;;;;5018976;28;20133;-75
2022/11/08 10:50:17;;;;;;;4.93;2.00;;;;;;;;;;5007019;28;20040;-75
2022/11/08 10:53:13;;;;;;;3.88;1.75;;;;;;;;;;5015605;28;20048;-75
2022/11/08 10:55:46;;;;;;;3.15;1.63;;;;;;;;;;5007146;28;20078;-75
2022/11/08 10:58:27;;;;;;;11.88;1.83;;;;;;;;;;4993979;28;20080;-75
2022/11/08 11:01:01;;;;;;;5.82;2.10;;;;;;;;;;5019190;28;20040;-74
2022/11/08 11:03:30;;;;;;;5.03;1.90;;;;;;;;;;5006240;28;20195;-74
2022/11/08 11:05:58;;;;;;;4.47;2.25;;;;;;;;;;5037096;28;20052;-74
2022/11/08 11:08:24;;;;;;;4.97;2.20;;;;;;;;;;5018906;28;20091;-74
2022/11/08 11:10:50;;;;;;;4.95;1.85;;;;;;;;;;4998571;28;20105;-74
2022/11/08 11:13:25;;;;;;;4.57;2.03;;;;;;;;;;5028284;28;20095;-73
2022/11/08 11:15:51;;;;;;;6.07;2.10;;;;;;;;;;5013743;28;20048;-73
2022/11/08 11:18:25;;;;;;;4.10;2.10;;;;;;;;;;5019930;28;20091;-74
2022/11/08 11:21:03;;;;;;;2.67;1.65;;;;;;;;;;5001705;28;20041;-73
2022/11/08 11:23:39;;;;;;;4.43;2.28;;;;;;;;;;5014650;28;21942;-73
2022/11/08 11:26:06;;;;;;;4.50;1.90;;;;;;;;;;5020778;28;20053;-74
2022/11/08 11:28:34;;;;;;;4.10;2.45;;;;;;;;;;5033612;28;20044;-74
2022/11/08 11:31:04;;;;;;;4.07;2.05;;;;;;;;;;5005167;28;20041;-73
2022/11/08 11:33:32;;;;;;;4.63;1.67;;;;;;;;;;5018977;28;20052;-73
2022/11/08 11:36:04;;;;;;;5.85;2.25;;;;;;;;;;5019264;28;20500;-73
2022/11/08 11:38:35;;;;;;;2.80;1.95;;;;;;;;;;5036029;28;20044;-73
2022/11/08 11:41:04;;;;;;;3.50;1.75;;;;;;;;;;4989206;28;20048;-73
2022/11/08 11:43:30;;;;;;;5.13;1.88;;;;;;;;;;5004359;28;20037;-73
2022/11/08 11:46:05;;;;;;;4.68;2.25;;;;;;;;;;5018841;28;20485;-74
2022/11/08 11:48:33;;;;;;;3.83;2.22;;;;;;;;;;5014709;28;20040;-74
2022/11/08 11:51:01;;;;;;;3.67;2.10;;;;;;;;;;5026538;28;20778;-73
2022/11/08 11:53:41;;;;;;;2.15;1.70;;;;;;;;;;5015842;28;20092;-74
2022/11/08 11:56:19;;;;;;;4.20;1.70;;;;;;;;;;5017002;28;20068;-74
2022/11/08 11:59:07;;;;;;;5.88;2.15;;;;;;;;;;5004312;28;20528;-74
2022/11/08 12:01:52;;;;;;;2.75;1.75;;;;;;;;;;5033869;28;20143;-74
2022/11/08 12:04:37;;;;;;;4.53;2.00;;;;;;;;;;5039658;28;20122;-73
2022/11/08 12:07:19;;;;;;;3.85;2.00;;;;;;;;;;5011418;28;20102;-73
2022/11/08 12:09:52;;;;;;;3.92;2.10;;;;;;;;;;5020239;28;20044;-74
2022/11/08 12:12:18;;;;;;;6.85;1.80;;;;;;;;;;5002427;28;20041;-73
2022/11/08 12:14:48;;;;;;;5.05;2.47;;;;;;;;;;4990956;28;20044;-74
2022/11/08 12:17:32;;;;;;;5.40;1.90;;;;;;;;;;5019822;28;20667;-74
2022/11/08 12:19:58;;;;;;;2.80;1.63;;;;;;;;;;5004398;28;20047;-73
2022/11/08 12:22:35;;;;;;;5.50;2.05;;;;;;;;;;5050378;28;20041;-73
2022/11/08 12:25:17;;;;;;;3.20;1.80;;;;;;;;;;5050219;28;20132;-72
2022/11/08 12:27:51;;;;;;;4.97;2.00;;;;;;;;;;5017791;28;20084;-74
2022/11/08 12:30:24;;;;;;;4.60;2.03;;;;;;;;;;5041500;28;20504;-73
2022/11/08 12:32:50;;;;;;;4.22;2.13;;;;;;;;;;5018545;28;21350;-73
2022/11/08 12:35:45;;;;;;;4.18;1.63;;;;;;;;;;5023607;28;20040;-73
2022/11/08 12:38:14;;;;;;;3.90;1.60;;;;;;;;;;5027100;28;20049;-73
2022/11/08 12:40:46;;;;;;;2.13;1.60;;;;;;;;;;5000196;28;20049;-73
2022/11/08 12:43:31;;;;;;;6.40;1.55;;;;;;;;;;4995385;28;20553;-73
2022/11/08 12:46:11;;;;;;;3.63;1.73;;;;;;;;;;5019186;28;20135;-73
2022/11/08 12:48:56;;;;;;;4.70;2.10;;;;;;;;;;5038061;28;20053;-73
2022/11/08 12:51:25;;;;;;;4.13;1.63;;;;;;;;;;5015111;28;21696;-72
2022/11/08 12:54:00;;;;;;;5.40;1.90;;;;;;;;;;5003861;28;20121;-72
2022/11/08 12:56:38;;;;;;;5.70;1.92;;;;;;;;;;5020896;28;20686;-72
2022/11/08 12:59:14;;;;;;;7.65;1.90;;;;;;;;;;5000877;28;20531;-72
2022/11/08 13:01:40;;;;;;;3.97;1.98;;;;;;;;;;5023202;28;20041;-73
2022/11/08 13:04:22;;;;;;;3.33;1.80;;;;;;;;;;5033781;28;20049;-73
2022/11/08 13:06:57;;;;;;;3.58;1.60;;;;;;;;;;5035173;28;20054;-73
2022/11/08 13:09:56;;;;;;;3.47;2.03;;;;;;;;;;5016774;28;20037;-73
2022/11/08 13:12:29;;;;;;;10.75;2.35;;;;;;;;;;4978727;28;20074;-73
2022/11/08 13:14:55;;;;;;;6.53;2.15;;;;;;;;;;5020728;28;20052;-73
2022/11/08 13:17:25;;;;;;;2.17;1.30;;;;;;;;;;4986425;28;20048;-73
2022/11/08 13:19:51;;;;;;;2.35;1.63;;;;;;;;;;5015757;28;20090;-73
2022/11/08 13:22:32;;;;;;;2.92;1.33;;;;;;;;;;5041580;28;20045;-72
2022/11/08 13:24:59;;;;;;;3.30;1.88;;;;;;;;;;5039201;28;20107;-73
2022/11/08 13:27:25;;;;;;;3.92;1.90;;;;;;;;;;5035964;28;20053;-73
2022/11/08 13:29:52;;;;;;;3.22;1.73;;;;;;;;;;5018528;28;20049;-74
2022/11/08 13:32:23;;;;;;;4.97;1.80;;;;;;;;;;5023148;28;20485;-74
2022/11/08 13:34:49;;;;;;;4.90;1.98;;;;;;;;;;5003786;28;20045;-73
2022/11/08 13:37:15;;;;;;;6.70;1.70;;;;;;;;;;5013095;28;20041;-73
2022/11/08 13:39:44;;;;;;;5.35;1.90;;;;;;;;;;4985061;28;20041;-73
2022/11/08 13:42:16;;;;;;;3.03;1.95;;;;;;;;;;5017635;28;20349;-73
2022/11/08 13:44:52;;;;;;;4.55;1.77;;;;;;;;;;4987757;28;20486;-74
2022/11/08 13:47:33;;;;;;;2.63;1.80;;;;;;;;;;5018489;28;20035;-73
2022/11/08 13:50:18;;;;;;;3.45;1.92;;;;;;;;;;5020860;28;20041;-74
2022/11/08 13:53:03;;;;;;;8.95;2.08;;;;;;;;;;5022248;28;20530;-74
2022/11/08 13:55:41;;;;;;;8.88;1.92;;;;;;;;;;5034154;28;20037;-74
2022/11/08 13:58:26;;;;;;;2.70;1.70;;;;;;;;;;5006299;28;20139;-74
2022/11/08 14:00:53;;;;;;;4.63;1.70;;;;;;;;;;5017100;28;20045;-73
2022/11/08 14:03:34;;;;;;;4.68;1.80;;;;;;;;;;5014366;28;20051;-74
2022/11/08 14:06:06;;;;;;;4.63;2.00;;;;;;;;;;5061087;28;20041;-73
2022/11/08 14:08:51;;;;;;;3.25;1.90;;;;;;;;;;5042214;28;20387;-73
2022/11/08 14:11:27;;;;;;;4.72;2.00;;;;;;;;;;5042844;28;20602;-74
2022/11/08 14:14:11;;;;;;;5.70;2.33;;;;;;;;;;5016452;28;20061;-74
2022/11/08 14:16:41;;;;;;;4.57;1.85;;;;;;;;;;5018400;28;20099;-74
2022/11/08 14:19:21;;;;;;;4.80;2.10;;;;;;;;;;5033525;28;20039;-74
2022/11/08 14:21:49;;;;;;;6.45;1.73;;;;;;;;;;5034713;28;20096;-75
2022/11/08 14:24:18;;;;;;;3.97;1.88;;;;;;;;;;5040062;28;20084;-74
2022/11/08 14:26:45;;;;;;;4.05;1.80;;;;;;;;;;5037075;28;20049;-74
2022/11/08 14:29:15;;;;;;;2.72;1.80;;;;;;;;;;5020341;28;20048;-73
2022/11/08 14:31:41;;;;;;;5.70;2.00;;;;;;;;;;5027352;28;20063;-73
2022/11/08 14:34:25;;;;;;;4.07;1.75;;;;;;;;;;5044620;28;20045;-74
2022/11/08 14:36:53;;;;;;;2.88;1.75;;;;;;;;;;5018786;28;20484;-75
2022/11/08 14:39:22;;;;;;;3.80;2.03;;;;;;;;;;5015795;28;20139;-72
2022/11/08 14:41:51;;;;;;;2.55;1.60;;;;;;;;;;5040008;28;20033;-73
2022/11/08 14:44:18;;;;;;;4.40;2.15;;;;;;;;;;5016134;28;20041;-73
2022/11/08 14:46:45;;;;;;;4.90;2.30;;;;;;;;;;5017628;28;20086;-70
2022/11/08 14:49:14;;;;;;;3.58;1.75;;;;;;;;;;5016375;28;20057;-69
2022/11/08 14:51:41;;;;;;;2.85;1.90;;;;;;;;;;5034672;28;20052;-69
2022/11/08 14:54:20;;;;;;;7.25;2.15;;;;;;;;;;5033492;28;20373;-70
2022/11/08 14:56:47;;;;;;;4.20;2.25;;;;;;;;;;5033340;28;20045;-70
2022/11/08 14:59:13;;;;;;;6.15;2.70;;;;;;;;;;5033100;28;20075;-70
2022/11/08 15:01:42;;;;;;;10.13;3.92;;;;;;;;;;5022881;28;20045;-70
2022/11/08 15:04:16;;;;;;;4.18;2.15;;;;;;;;;;5036514;28;20072;-70
2022/11/08 15:06:52;;;;;;;8.05;2.40;;;;;;;;;;5021479;28;20365;-69
2022/11/08 15:09:27;;;;;;;5.63;2.10;;;;;;;;;;5014084;28;20462;-69